Time;durP1;ratioP1;P1;durP2;ratioP2;P2;SDS_P1;SDS_P2;PMS_P1;PMS_P2;Temp;Humidity;BMP_temperature;BMP_pressure;BME280_temperature;BME280_humidity;BME280_pressure;Samples;Min_cycle;Max_cycle;Signal;HPM_P1;HPM_P2
2022/01/20 00:03:17;;;;;;;;;;;;;;;-1.11;59.10;100256.34;4439590;32;20008;-87
2022/01/20 00:27:10;;;;;;;;;;;;;;;-1.33;59.09;100259.22;4440925;32;20016;-89
2022/01/20 00:30:19;;;;;;;;;;;;;;;-1.32;59.09;100256.69;4438452;32;20019;-89
2022/01/20 00:32:26;;;;;;;;;;;;;;;-1.34;59.09;100247.28;4440534;32;19993;-89
2022/01/20 00:37:23;;;;;;;;;;;;;;;-1.23;59.10;100268.81;4439218;32;20011;-88
2022/01/20 00:39:48;;;;;;;;;;;;;;;-1.17;59.10;100270.66;4438765;32;20337;-89
2022/01/20 00:42:15;;;;;;;;;;;;;;;-1.27;59.10;100272.13;4452854;32;20016;-88
2022/01/20 00:44:40;;;;;;;;;;;;;;;-1.50;59.08;100271.56;4438872;32;20001;-88
2022/01/20 00:47:05;;;;;;;;;;;;;;;-1.47;59.08;100263.97;4438248;32;20045;-89
2022/01/20 00:49:31;;;;;;;;;;;;;;;-1.55;59.08;100268.91;4451730;32;19988;-89
2022/01/20 00:51:56;;;;;;;;;;;;;;;-1.54;59.08;100269.75;4437747;32;20023;-87
2022/01/20 00:54:21;;;;;;;;;;;;;;;-1.42;59.09;100271.75;4437889;32;20363;-88
2022/01/20 00:56:46;;;;;;;;;;;;;;;-1.66;59.08;100272.00;4438243;32;19993;-87
2022/01/20 00:59:12;;;;;;;;;;;;;;;-1.62;59.07;100272.13;4452392;32;19989;-88
2022/01/20 01:01:37;;;;;;;;;;;;;;;-1.57;59.08;100268.00;4437654;32;20004;-88
2022/01/20 01:04:02;;;;;;;;;;;;;;;-1.53;59.08;100271.50;4425124;32;20031;-87
2022/01/20 01:08:53;;;;;;;;;;;;;;;-1.56;59.08;100277.37;4437954;32;19989;-87
2022/01/20 01:11:19;;;;;;;;;;;;;;;-1.53;59.08;100273.19;4425117;32;20008;-88
2022/01/20 01:13:45;;;;;;;;;;;;;;;-1.55;59.08;100273.16;4425145;32;20028;-87
2022/01/20 01:16:12;;;;;;;;;;;;;;;-1.62;59.07;100272.13;4439823;32;20016;-88
2022/01/20 01:21:30;;;;;;;;;;;;;;;-1.63;59.07;100270.41;4442616;32;20045;-87
2022/01/20 01:23:56;;;;;;;;;;;;;;;-1.55;59.08;100279.12;4441590;32;20004;-88
2022/01/20 01:26:24;;;;;;;;;;;;;;;-1.64;59.08;100278.03;4441404;32;19985;-88
2022/01/20 01:28:50;;;;;;;;;;;;;;;-1.63;59.07;100262.75;4428435;32;19981;-87
2022/01/20 01:31:39;;;;;;;;;;;;;;;-1.52;59.09;100257.91;4440314;32;20037;-87
2022/01/20 01:34:09;;;;;;;;;;;;;;;-1.47;59.08;100245.25;4454803;32;19999;-88
2022/01/20 01:36:49;;;;;;;;;;;;;;;-1.21;59.10;100235.62;4455377;32;20002;-88
2022/01/20 01:39:15;;;;;;;;;;;;;;;-1.12;59.10;100230.75;4430336;32;19988;-88
2022/01/20 01:41:40;;;;;;;;;;;;;;;-1.20;59.10;100233.13;4428021;32;20029;-88
2022/01/20 01:44:08;;;;;;;;;;;;;;;-1.13;59.11;100223.94;4440327;32;20019;-87
2022/01/20 01:46:34;;;;;;;;;;;;;;;-0.97;59.11;100215.75;4440361;32;20269;-87
2022/01/20 01:48:59;;;;;;;;;;;;;;;-0.70;59.13;100208.69;4427171;32;19973;-88
2022/01/20 01:51:25;;;;;;;;;;;;;;;-0.60;59.13;100199.50;4439838;32;20254;-87
2022/01/20 01:53:50;;;;;;;;;;;;;;;-0.50;59.15;100209.06;4439837;32;20001;-87
2022/01/20 01:56:15;;;;;;;;;;;;;;;-0.50;59.15;100191.16;4440067;32;19969;-88
2022/01/20 01:58:40;;;;;;;;;;;;;;;-0.48;59.14;100194.59;4454110;32;20027;-87
2022/01/20 02:01:06;;;;;;;;;;;;;;;-0.45;59.14;100181.91;4427116;32;20009;-88
2022/01/20 02:03:33;;;;;;;;;;;;;;;-0.22;59.15;100177.22;4454195;32;20770;-87
2022/01/20 02:08:56;;;;;;;;;;;;;;;-0.12;59.17;100166.31;4441975;32;19991;-87
2022/01/20 02:19:33;;;;;;;;;;;;;;;-0.02;59.17;100131.50;4442848;32;20008;-87
2022/01/20 02:22:02;;;;;;;;;;;;;;;-0.05;59.17;100131.44;4453934;32;19993;-87
2022/01/20 02:24:28;;;;;;;;;;;;;;;0.18;59.18;100132.69;4440052;32;20020;-88
2022/01/20 02:26:53;;;;;;;;;;;;;;;0.22;59.18;100116.53;4426895;32;19981;-88
2022/01/20 02:29:18;;;;;;;;;;;;;;;0.24;59.19;100117.44;4439457;32;20266;-89
2022/01/20 02:31:44;;;;;;;;;;;;;;;0.38;59.20;100114.22;4439871;32;20030;-88
2022/01/20 02:34:11;;;;;;;;;;;;;;;0.27;59.19;100111.50;4426899;32;20004;-89
2022/01/20 02:36:37;;;;;;;;;;;;;;;0.19;59.18;100119.03;4439917;32;19969;-89
2022/01/20 02:39:12;;;;;;;;;;;;;;;0.21;59.18;100111.37;4454040;32;19976;-88
2022/01/20 02:47:09;;;;;;;;;;;;;;;0.38;59.20;100106.53;4442550;32;20104;-92
2022/01/20 02:49:34;;;;;;;;;;;;;;;0.09;59.18;100096.72;4427993;32;20366;-92
2022/01/20 02:52:01;;;;;;;;;;;;;;;0.21;59.18;100107.12;4427743;32;20001;-88
2022/01/20 02:54:26;;;;;;;;;;;;;;;0.21;59.19;100106.25;4427231;32;20005;-87
2022/01/20 02:56:51;;;;;;;;;;;;;;;0.17;59.18;100097.69;4439002;32;20786;-85
2022/01/20 02:59:16;;;;;;;;;;;;;;;0.04;59.17;100100.03;4426440;32;20000;-86
2022/01/20 03:01:42;;;;;;;;;;;;;;;0.01;59.17;100100.00;4439503;32;20016;-86
2022/01/20 03:04:07;;;;;;;;;;;;;;;0.05;59.17;100087.28;4439604;32;20020;-86
2022/01/20 03:06:32;;;;;;;;;;;;;;;0.21;59.18;100090.91;4453772;32;20785;-86
2022/01/20 03:08:57;;;;;;;;;;;;;;;0.03;59.17;100078.72;4438833;32;22145;-86
2022/01/20 03:11:23;;;;;;;;;;;;;;;-0.21;59.15;100075.75;4439581;32;20030;-88
2022/01/20 03:13:48;;;;;;;;;;;;;;;-0.17;59.16;100077.53;4427207;32;20368;-88
2022/01/20 03:16:13;;;;;;;;;;;;;;;-0.16;59.16;100072.44;4426566;32;19999;-87
2022/01/20 03:18:38;;;;;;;;;;;;;;;-0.20;59.16;100073.22;4453596;32;19984;-87
2022/01/20 03:21:04;;;;;;;;;;;;;;;-0.54;59.14;100073.47;4453329;32;20345;-87
2022/01/20 03:23:29;;;;;;;;;;;;;;;-0.60;59.13;100074.22;4439228;32;20236;-86
2022/01/20 03:25:54;;;;;;;;;;;;;;;-0.48;59.14;100061.63;4453546;32;19999;-86
2022/01/20 03:28:19;;;;;;;;;;;;;;;-0.50;59.15;100060.75;4453503;32;20003;-86
2022/01/20 03:30:45;;;;;;;;;;;;;;;-0.51;59.14;100056.47;4439376;32;20018;-86
2022/01/20 03:33:10;;;;;;;;;;;;;;;-0.56;59.14;100052.12;4426366;32;20024;-87
2022/01/20 03:35:35;;;;;;;;;;;;;;;-0.69;59.14;100044.25;4426398;32;20011;-87
2022/01/20 03:38:01;;;;;;;;;;;;;;;-0.75;59.13;100051.78;4438678;32;20024;-88
2022/01/20 03:40:26;;;;;;;;;;;;;;;-0.87;59.11;100051.59;4426605;32;20001;-87
2022/01/20 03:42:51;;;;;;;;;;;;;;;-0.82;59.12;100042.28;4439091;32;20000;-88
2022/01/20 03:45:16;;;;;;;;;;;;;;;-0.97;59.11;100039.44;4453187;32;19978;-88
2022/01/20 03:47:42;;;;;;;;;;;;;;;-0.82;59.12;100026.09;4439318;32;19985;-87
2022/01/20 03:50:59;;;;;;;;;;;;;;;-0.82;59.12;100044.84;4439060;32;20021;-89
2022/01/20 03:52:53;;;;;;;;;;;;;;;-0.80;59.12;100034.66;4442011;32;19993;-89
2022/01/20 03:55:18;;;;;;;;;;;;;;;-0.75;59.13;100028.78;4427229;32;20348;-90
2022/01/20 03:57:43;;;;;;;;;;;;;;;-0.82;59.12;100036.31;4427064;32;20004;-90
2022/01/20 04:00:09;;;;;;;;;;;;;;;-0.66;59.13;100025.56;4427000;32;20019;-89
2022/01/20 04:02:34;;;;;;;;;;;;;;;-0.81;59.12;100013.34;4427446;32;20011;-90
2022/01/20 04:04:59;;;;;;;;;;;;;;;-1.06;59.11;100023.97;4426864;32;19988;-90
2022/01/20 04:07:25;;;;;;;;;;;;;;;-0.94;59.12;100025.06;4439444;32;20005;-90
2022/01/20 04:09:50;;;;;;;;;;;;;;;-0.99;59.11;100020.69;4426426;32;20043;-89
2022/01/20 04:12:15;;;;;;;;;;;;;;;-0.86;59.12;100017.53;4426681;32;19998;-90
2022/01/20 04:14:46;;;;;;;;;;;;;;;-0.99;59.12;100021.53;4426735;32;20039;-88
2022/01/20 04:17:17;;;;;;;;;;;;;;;-1.11;59.10;100021.31;4427350;32;19993;-89
2022/01/20 04:19:43;;;;;;;;;;;;;;;-0.98;59.11;100018.16;4427290;32;20040;-91
2022/01/20 04:22:08;;;;;;;;;;;;;;;-0.96;59.11;100025.84;4426826;32;20000;-88
2022/01/20 04:24:33;;;;;;;;;;;;;;;-0.88;59.12;100018.34;4439006;32;19996;-89
2022/01/20 04:26:59;;;;;;;;;;;;;;;-0.98;59.11;100022.41;4438910;32;20259;-88
2022/01/20 04:29:24;;;;;;;;;;;;;;;-0.96;59.11;100025.84;4426007;32;20051;-89
2022/01/20 04:31:50;;;;;;;;;;;;;;;-1.04;59.11;100023.16;4438590;32;20004;-88
2022/01/20 04:34:15;;;;;;;;;;;;;;;-0.99;59.11;100020.69;4452907;32;19988;-88
2022/01/20 04:36:43;;;;;;;;;;;;;;;-0.82;59.12;100016.75;4439212;32;20028;-88
2022/01/20 04:39:11;;;;;;;;;;;;;;;-0.81;59.12;100020.16;4426176;32;19993;-89
2022/01/20 04:41:36;;;;;;;;;;;;;;;-0.85;59.12;100023.50;4426149;32;20000;-89
2022/01/20 04:44:02;;;;;;;;;;;;;;;-0.85;59.12;100037.13;4425095;32;20013;-89
2022/01/20 04:46:43;;;;;;;;;;;;;;;-1.05;59.11;100041.88;4425644;32;19978;-89
2022/01/20 04:57:22;;;;;;;;;;;;;;;-1.11;59.10;100043.44;4442877;32;20067;-90
2022/01/20 04:59:51;;;;;;;;;;;;;;;-0.99;59.11;100043.66;4441834;32;20036;-88
2022/01/20 05:02:16;;;;;;;;;;;;;;;-1.17;59.10;100039.09;4440708;32;20012;-90
2022/01/20 05:04:41;;;;;;;;;;;;;;;-1.23;59.10;100038.94;4454648;32;19989;-88
2022/01/20 05:07:07;;;;;;;;;;;;;;;-1.26;59.09;100026.97;4455010;32;20426;-90
2022/01/20 05:09:33;;;;;;;;;;;;;;;-1.20;59.10;100033.03;4440853;32;19993;-90
2022/01/20 05:12:01;;;;;;;;;;;;;;;-1.14;59.11;100034.03;4440652;32;20001;-90
2022/01/20 05:14:27;;;;;;;;;;;;;;;-1.04;59.11;100032.50;4441158;32;20390;-90
2022/01/20 05:16:53;;;;;;;;;;;;;;;-1.03;59.11;100018.91;4440495;32;20045;-89
2022/01/20 05:19:19;;;;;;;;;;;;;;;-1.14;59.11;100018.72;4428835;32;19993;-90
2022/01/20 05:21:44;;;;;;;;;;;;;;;-1.13;59.11;100014.47;4441097;32;20054;-89
2022/01/20 05:24:09;;;;;;;;;;;;;;;-1.27;59.10;100025.25;4427333;32;19986;-90
2022/01/20 05:26:35;;;;;;;;;;;;;;;-0.98;59.11;100032.63;4440431;32;19989;-89
2022/01/20 05:29:00;;;;;;;;;;;;;;;-1.17;59.10;100035.69;4427528;32;20046;-89
2022/01/20 05:31:25;;;;;;;;;;;;;;;-1.29;59.10;100029.47;4427620;32;20001;-90
2022/01/20 05:33:50;;;;;;;;;;;;;;;-1.11;59.10;100021.31;4427549;32;20027;-90
2022/01/20 05:36:15;;;;;;;;;;;;;;;-1.32;59.09;100024.31;4440417;32;20309;-89
2022/01/20 05:38:41;;;;;;;;;;;;;;;-1.40;59.09;100028.41;4427239;32;20052;-89
2022/01/20 05:41:06;;;;;;;;;;;;;;;-1.17;59.09;100028.88;4427215;32;20035;-90
2022/01/20 05:43:31;;;;;;;;;;;;;;;-1.17;59.10;100021.22;4427772;32;20003;-90
2022/01/20 05:45:56;;;;;;;;;;;;;;;-1.11;59.10;100025.56;4427729;32;19995;-89
2022/01/20 05:48:32;;;;;;;;;;;;;;;-1.28;59.10;100020.97;4427565;32;20351;-90
2022/01/20 05:50:58;;;;;;;;;;;;;;;-1.33;59.09;100014.06;4428954;32;20137;-88
2022/01/20 05:53:23;;;;;;;;;;;;;;;-1.15;59.11;100011.03;4427541;32;19977;-89
2022/01/20 05:55:48;;;;;;;;;;;;;;;-1.19;59.10;100021.97;4427121;32;20009;-88
2022/01/20 05:58:13;;;;;;;;;;;;;;;-1.12;59.10;100011.94;4439776;32;20008;-88
2022/01/20 06:00:39;;;;;;;;;;;;;;;-0.99;59.12;100023.22;4426949;32;20030;-88
2022/01/20 06:05:47;;;;;;;;;;;;;;;-0.92;59.12;100037.88;4442886;32;19988;-88
2022/01/20 06:08:13;;;;;;;;;;;;;;;-1.00;59.11;100032.59;4439809;32;20001;-89
2022/01/20 06:10:38;;;;;;;;;;;;;;;-1.11;59.10;100020.47;4454123;32;20044;-87
2022/01/20 06:13:03;;;;;;;;;;;;;;;-0.87;59.12;100025.16;4439822;32;20317;-87
2022/01/20 06:15:28;;;;;;;;;;;;;;;-0.84;59.13;100017.56;4439885;32;19969;-88
2022/01/20 06:17:54;;;;;;;;;;;;;;;-0.71;59.13;100011.81;4439722;32;20008;-88
2022/01/20 06:20:19;;;;;;;;;;;;;;;-0.66;59.13;100010.22;4426960;32;20019;-86
2022/01/20 06:22:44;;;;;;;;;;;;;;;-0.63;59.14;100007.72;4453969;32;19989;-87
2022/01/20 06:25:09;;;;;;;;;;;;;;;-0.53;59.14;100003.59;4454158;32;20372;-88
2022/01/20 06:27:35;;;;;;;;;;;;;;;-0.40;59.15;100003.84;4439560;32;19989;-87
2022/01/20 06:30:00;;;;;;;;;;;;;;;-0.30;59.16;100002.28;4454222;32;19978;-87
2022/01/20 06:32:26;;;;;;;;;;;;;;;-0.09;59.17;100006.84;4426786;32;19977;-87
2022/01/20 06:34:51;;;;;;;;;;;;;;;-0.13;59.17;100003.41;4439627;32;20126;-87
2022/01/20 06:37:16;;;;;;;;;;;;;;;-0.13;59.17;100008.50;4453357;32;20615;-88
2022/01/20 06:39:41;;;;;;;;;;;;;;;-0.05;59.17;100013.72;4439745;32;20011;-87
2022/01/20 06:42:07;;;;;;;;;;;;;;;-0.03;59.17;100014.63;4439756;32;19995;-87
2022/01/20 06:44:32;;;;;;;;;;;;;;;0.21;59.18;100014.97;4426885;32;20001;-88
2022/01/20 06:46:57;;;;;;;;;;;;;;;0.48;59.20;100006.81;4439630;32;20369;-88
2022/01/20 06:49:22;;;;;;;;;;;;;;;0.56;59.20;100002.63;4439378;32;20023;-88
2022/01/20 06:51:48;;;;;;;;;;;;;;;0.75;59.22;99992.63;4426101;32;20013;-87
2022/01/20 06:54:13;;;;;;;;;;;;;;;0.97;59.23;99996.28;4439428;32;20021;-87
2022/01/20 06:56:38;;;;;;;;;;;;;;;0.90;59.23;99998.75;4453255;32;19985;-87
2022/01/20 06:59:03;;;;;;;;;;;;;;;0.99;59.23;99992.03;4426543;32;20008;-88
2022/01/20 07:01:29;;;;;;;;;;;;;;;1.07;59.23;99992.94;4426608;32;19989;-88
2022/01/20 07:03:54;;;;;;;;;;;;;;;1.31;59.25;99985.50;4439493;32;19998;-88
2022/01/20 07:06:19;;;;;;;;;;;;;;;1.31;59.24;99975.22;4426492;32;20329;-88
2022/01/20 07:08:44;;;;;;;;;;;;;;;1.34;59.25;99970.13;4439189;32;19993;-87
2022/01/20 07:11:10;;;;;;;;;;;;;;;1.51;59.26;99970.28;4439301;32;19997;-87
2022/01/20 07:13:35;;;;;;;;;;;;;;;1.50;59.26;99968.56;4438429;32;20349;-89
2022/01/20 07:16:01;;;;;;;;;;;;;;;1.56;59.27;99967.75;4439753;32;20045;-88
2022/01/20 07:18:26;;;;;;;;;;;;;;;1.65;59.27;99968.66;4439538;32;20041;-89
2022/01/20 07:20:51;;;;;;;;;;;;;;;1.68;59.27;99955.87;4439434;32;20592;-88
2022/01/20 07:23:17;;;;;;;;;;;;;;;1.85;59.28;99964.53;4439418;32;19965;-88
2022/01/20 07:25:42;;;;;;;;;;;;;;;1.77;59.28;99955.06;4439447;32;19989;-88
2022/01/20 07:28:07;;;;;;;;;;;;;;;1.82;59.27;99943.13;4439252;32;20019;-88
2022/01/20 07:30:32;;;;;;;;;;;;;;;1.98;59.29;99942.38;4426378;32;20007;-87
2022/01/20 07:33:02;;;;;;;;;;;;;;;2.10;59.29;99931.28;4426441;32;20671;-88
2022/01/20 07:35:27;;;;;;;;;;;;;;;2.12;59.29;99934.72;4440069;32;20559;-88
2022/01/20 07:37:52;;;;;;;;;;;;;;;2.04;59.29;99946.69;4439373;32;20346;-87
2022/01/20 07:40:17;;;;;;;;;;;;;;;1.85;59.28;99951.69;4439587;32;20341;-89
2022/01/20 07:42:43;;;;;;;;;;;;;;;1.97;59.28;99943.22;4426661;32;19989;-88
2022/01/20 07:45:08;;;;;;;;;;;;;;;2.04;59.29;99933.84;4439365;32;19989;-88
2022/01/20 07:47:34;;;;;;;;;;;;;;;2.30;59.31;99936.53;4453447;32;19996;-87
2022/01/20 07:49:59;;;;;;;;;;;;;;;2.31;59.31;99935.66;4439114;32;19987;-88
2022/01/20 07:52:25;;;;;;;;;;;;;;;2.47;59.31;99922.91;4439105;32;19984;-86
2022/01/20 07:54:50;;;;;;;;;;;;;;;2.46;59.31;99928.03;4453077;32;20028;-89
2022/01/20 07:57:15;;;;;;;;;;;;;;;2.69;59.33;99935.81;4439132;32;20383;-88
2022/01/20 07:59:40;;;;;;;;;;;;;;;2.56;59.32;99927.19;4426026;32;20024;-89
2022/01/20 08:02:06;;;;;;;;;;;;;;;2.74;59.33;99919.56;4438998;32;19993;-87
2022/01/20 08:04:31;;;;;;;;;;;;;;;2.83;59.33;99928.12;4426655;32;20023;-86
2022/01/20 08:06:56;;;;;;;;;;;;;;;2.90;59.34;99932.44;4438956;32;20030;-88
2022/01/20 08:09:23;;;;;;;;;;;;;;;3.01;59.34;99938.44;4438733;32;20042;-86
2022/01/20 08:11:48;;;;;;;;;;;;;;;3.10;59.36;99935.06;4428556;32;20360;-88
2022/01/20 08:14:14;;;;;;;;;;;;;;;3.14;59.35;99926.47;4453148;32;19993;-86
2022/01/20 08:16:39;;;;;;;;;;;;;;;3.33;59.37;99931.63;4439039;32;19989;-87
2022/01/20 08:19:04;;;;;;;;;;;;;;;3.43;59.37;99929.91;4439164;32;19976;-87
2022/01/20 08:21:29;;;;;;;;;;;;;;;3.60;59.38;99924.75;4439267;32;20306;-87
2022/01/20 08:23:55;;;;;;;;;;;;;;;3.62;59.38;99925.59;4452845;32;20036;-85
2022/01/20 08:26:20;;;;;;;;;;;;;;;3.56;59.37;99928.19;4439097;32;20008;-85
2022/01/20 08:28:45;;;;;;;;;;;;;;;3.78;59.39;99932.44;4426105;32;20030;-86
2022/01/20 08:31:10;;;;;;;;;;;;;;;3.81;59.39;99927.31;4439105;32;20346;-86
2022/01/20 08:33:36;;;;;;;;;;;;;;;3.82;59.39;99931.59;4439676;32;19993;-85
2022/01/20 08:36:01;;;;;;;;;;;;;;;3.75;59.38;99931.59;4438967;32;20210;-85
2022/01/20 08:38:26;;;;;;;;;;;;;;;3.95;59.40;99941.00;4452623;32;20162;-86
2022/01/20 08:40:51;;;;;;;;;;;;;;;3.92;59.40;99933.28;4438448;32;19981;-87
2022/01/20 08:43:17;;;;;;;;;;;;;;;4.05;59.41;99926.38;4438575;32;19984;-85
2022/01/20 08:45:44;;;;;;;;;;;;;;;3.96;59.39;99921.25;4438667;32;20012;-87
2022/01/20 08:48:12;;;;;;;;;;;;;;;4.11;59.41;99912.63;4438159;32;19981;-86
2022/01/20 08:50:37;;;;;;;;;;;;;;;4.23;59.42;99907.41;4425910;32;20375;-86
2022/01/20 08:53:03;;;;;;;;;;;;;;;4.33;59.42;99906.53;4438282;32;20009;-85
2022/01/20 08:55:28;;;;;;;;;;;;;;;4.45;59.43;99901.31;4425758;32;20035;-85
2022/01/20 08:57:54;;;;;;;;;;;;;;;4.40;59.42;99902.19;4452672;32;20231;-85
2022/01/20 09:00:20;;;;;;;;;;;;;;;4.40;59.42;99905.62;4438195;32;19989;-85
2022/01/20 09:02:45;;;;;;;;;;;;;;;4.48;59.43;99903.00;4438371;32;20325;-86
2022/01/20 09:05:11;;;;;;;;;;;;;;;4.74;59.44;99911.50;4437915;32;20040;-85
2022/01/20 09:07:36;;;;;;;;;;;;;;;4.76;59.45;99908.91;4425069;32;20333;-84
2022/01/20 09:10:04;;;;;;;;;;;;;;;4.73;59.45;99912.34;4438402;32;20823;-87
2022/01/20 09:17:41;;;;;;;;;;;;;;;5.03;59.46;99929.34;4440306;32;20038;-86
2022/01/20 09:20:06;;;;;;;;;;;;;;;5.01;59.47;99928.50;4437995;32;20005;-85
2022/01/20 09:22:33;;;;;;;;;;;;;;;5.05;59.46;99925.03;4438413;32;20005;-87
2022/01/20 09:24:58;;;;;;;;;;;;;;;4.97;59.45;99929.41;4438368;32;20388;-87
2022/01/20 09:27:24;;;;;;;;;;;;;;;5.07;59.46;99927.59;4437763;32;23620;-88
2022/01/20 09:29:49;;;;;;;;;;;;;;;5.23;59.46;99922.31;4452613;32;19999;-86
2022/01/20 09:32:16;;;;;;;;;;;;;;;5.33;59.48;99925.69;4439241;32;20008;-86
2022/01/20 09:34:42;;;;;;;;;;;;;;;5.46;59.48;99918.72;4439981;32;20523;-86
2022/01/20 09:37:07;;;;;;;;;;;;;;;5.37;59.48;99919.63;4458225;32;20029;-87
2022/01/20 09:39:32;;;;;;;;;;;;;;;5.35;59.47;99931.69;4441090;32;20014;-86
2022/01/20 09:41:58;;;;;;;;;;;;;;;5.61;59.49;99915.97;4454823;32;20031;-87
2022/01/20 09:44:23;;;;;;;;;;;;;;;5.68;59.50;99920.22;4455162;32;20016;-87
2022/01/20 09:46:48;;;;;;;;;;;;;;;5.75;59.49;99921.00;4441295;32;20024;-87
2022/01/20 09:49:14;;;;;;;;;;;;;;;5.79;59.50;99920.97;4440912;32;20009;-86
2022/01/20 09:51:39;;;;;;;;;;;;;;;5.91;59.52;99917.41;4428077;32;20003;-87
2022/01/20 09:54:05;;;;;;;;;;;;;;;5.95;59.51;99923.44;4440325;32;20068;-87
2022/01/20 09:56:30;;;;;;;;;;;;;;;5.67;59.49;99922.78;4427546;32;19997;-88
2022/01/20 09:58:55;;;;;;;;;;;;;;;5.61;59.48;99917.69;4428823;32;20015;-87
2022/01/20 10:01:40;;;;;;;;;;;;;;;5.63;59.50;99905.62;4440467;32;20082;-86
2022/01/20 10:04:05;;;;;;;;;;;;;;;5.79;59.50;99910.63;4439907;32;20381;-87
2022/01/20 10:06:30;;;;;;;;;;;;;;;5.73;59.50;99909.84;4439475;32;27037;-86
2022/01/20 10:08:59;;;;;;;;;;;;;;;5.73;59.49;99902.09;4429064;32;20001;-87
2022/01/20 10:11:24;;;;;;;;;;;;;;;5.90;59.50;99907.09;4442228;32;20342;-87
2022/01/20 10:13:50;;;;;;;;;;;;;;;5.84;59.51;99902.84;4456873;32;19992;-87
2022/01/20 10:16:17;;;;;;;;;;;;;;;5.68;59.50;99902.16;4442005;32;20364;-88
2022/01/20 10:18:53;;;;;;;;;;;;;;;5.46;59.48;99900.63;4440873;32;19981;-86
2022/01/20 10:21:18;;;;;;;;;;;;;;;5.48;59.49;99897.16;4428564;32;20047;-84
2022/01/20 10:23:44;;;;;;;;;;;;;;;5.32;59.48;99897.31;4427940;32;19992;-87
2022/01/20 10:26:09;;;;;;;;;;;;;;;5.39;59.49;99899.81;4456009;32;19977;-88
2022/01/20 10:28:53;;;;;;;;;;;;;;;5.66;59.49;99878.03;4454796;32;20325;-87
2022/01/20 10:31:29;;;;;;;;;;;;;;;5.69;59.50;99879.75;4454232;32;19997;-87
2022/01/20 10:33:54;;;;;;;;;;;;;;;5.51;59.48;99878.22;4454293;32;20052;-85
2022/01/20 10:36:19;;;;;;;;;;;;;;;5.90;59.50;99868.34;4453976;32;19985;-84
2022/01/20 10:38:48;;;;;;;;;;;;;;;5.87;59.51;99866.63;4454141;32;20021;-84
2022/01/20 10:41:13;;;;;;;;;;;;;;;5.62;59.49;99863.44;4440064;32;19989;-84
2022/01/20 10:43:39;;;;;;;;;;;;;;;5.68;59.50;99858.25;4455203;32;19977;-85
2022/01/20 10:46:08;;;;;;;;;;;;;;;5.62;59.50;99857.44;4440400;32;20000;-86
2022/01/20 10:48:34;;;;;;;;;;;;;;;5.44;59.48;99856.75;4438864;32;19973;-87
2022/01/20 10:50:59;;;;;;;;;;;;;;;5.54;59.49;99847.19;4453765;32;19985;-87
2022/01/20 10:53:24;;;;;;;;;;;;;;;5.68;59.50;99842.75;4454107;32;19993;-86
2022/01/20 10:55:50;;;;;;;;;;;;;;;5.53;59.49;99842.91;4439748;32;19978;-87
2022/01/20 10:58:16;;;;;;;;;;;;;;;5.79;59.50;99830.56;4439842;32;19992;-87
2022/01/20 11:00:45;;;;;;;;;;;;;;;5.88;59.50;99821.84;4454053;32;20019;-85
2022/01/20 11:03:10;;;;;;;;;;;;;;;6.08;59.52;99824.22;4439837;32;20519;-84
2022/01/20 11:05:36;;;;;;;;;;;;;;;6.10;59.52;99809.53;4439876;32;19988;-83
2022/01/20 11:08:01;;;;;;;;;;;;;;;6.17;59.52;99800.84;4439172;32;20034;-84
2022/01/20 11:10:26;;;;;;;;;;;;;;;6.26;59.53;99790.38;4439528;32;20293;-84
2022/01/20 11:12:51;;;;;;;;;;;;;;;6.44;59.54;99797.88;4453844;32;20021;-84
2022/01/20 11:15:17;;;;;;;;;;;;;;;6.45;59.54;99798.75;4439051;32;22531;-84
2022/01/20 11:17:43;;;;;;;;;;;;;;;6.45;59.54;99797.00;4426413;32;20336;-84
2022/01/20 11:20:08;;;;;;;;;;;;;;;6.53;59.54;99796.03;4439451;32;20034;-84
2022/01/20 11:22:34;;;;;;;;;;;;;;;6.63;59.54;99797.63;4453632;32;20016;-84
2022/01/20 11:25:00;;;;;;;;;;;;;;;6.57;59.54;99792.50;4453558;32;20310;-84
2022/01/20 11:27:37;;;;;;;;;;;;;;;6.60;59.55;99793.31;4439520;32;20033;-85
2022/01/20 11:30:33;;;;;;;;;;;;;;;6.65;59.54;99786.38;4439277;32;20048;-84
2022/01/20 11:32:58;;;;;;;;;;;;;;;6.65;59.54;99783.78;4440176;32;20303;-84
2022/01/20 11:35:33;;;;;;;;;;;;;;;6.58;59.55;99755.44;4453419;32;19978;-85
2022/01/20 11:38:00;;;;;;;;;;;;;;;6.62;59.54;99747.59;4439261;32;19997;-84
2022/01/20 11:40:25;;;;;;;;;;;;;;;6.63;59.54;99733.81;4439180;32;20060;-84
2022/01/20 11:42:57;;;;;;;;;;;;;;;6.64;59.56;99735.53;4439197;32;20008;-84
2022/01/20 11:45:34;;;;;;;;;;;;;;;6.65;59.56;99731.19;4453437;32;19981;-85
2022/01/20 11:48:12;;;;;;;;;;;;;;;6.73;59.56;99716.41;4439492;32;19973;-85
2022/01/20 11:50:37;;;;;;;;;;;;;;;6.93;59.56;99711.72;4427014;32;19993;-84
2022/01/20 11:53:11;;;;;;;;;;;;;;;7.07;59.57;99722.66;4454701;32;19981;-85
2022/01/20 11:55:41;;;;;;;;;;;;;;;7.17;59.58;99712.16;4439886;32;19973;-85
2022/01/20 11:58:10;;;;;;;;;;;;;;;7.38;59.59;99715.19;4438901;32;19977;-84
2022/01/20 12:00:35;;;;;;;;;;;;;;;7.44;59.59;99715.97;4439480;32;20003;-84
2022/01/20 12:03:08;;;;;;;;;;;;;;;7.60;59.60;99725.13;4453460;32;20009;-84
2022/01/20 12:05:35;;;;;;;;;;;;;;;7.50;59.60;99705.47;4439138;32;19981;-84
2022/01/20 12:08:04;;;;;;;;;;;;;;;7.40;59.59;99691.88;4453159;32;20002;-85
2022/01/20 12:10:29;;;;;;;;;;;;;;;7.49;59.60;99694.25;4426152;32;20088;-86
2022/01/20 12:13:03;;;;;;;;;;;;;;;7.56;59.61;99688.06;4453150;32;19984;-85
2022/01/20 12:15:29;;;;;;;;;;;;;;;7.47;59.59;99684.81;4453091;32;19977;-85
2022/01/20 12:17:54;;;;;;;;;;;;;;;7.57;59.61;99688.91;4425459;32;23131;-84
2022/01/20 12:20:20;;;;;;;;;;;;;;;7.32;59.58;99683.38;4438873;32;20001;-84
2022/01/20 12:22:46;;;;;;;;;;;;;;;7.36;59.59;99685.03;4439199;32;19989;-84
2022/01/20 12:25:18;;;;;;;;;;;;;;;7.49;59.60;99681.31;4438953;32;20014;-84
2022/01/20 12:27:43;;;;;;;;;;;;;;;7.50;59.60;99684.75;4438810;32;20316;-84
2022/01/20 12:30:19;;;;;;;;;;;;;;;7.14;59.57;99676.00;4438656;32;20047;-84
2022/01/20 12:32:53;;;;;;;;;;;;;;;7.28;59.58;99661.88;4438787;32;20037;-84
2022/01/20 12:35:19;;;;;;;;;;;;;;;7.28;59.58;99653.25;4438684;32;20052;-85
2022/01/20 12:37:44;;;;;;;;;;;;;;;7.50;59.60;99661.44;4437965;32;23898;-85
2022/01/20 12:40:16;;;;;;;;;;;;;;;7.57;59.60;99660.41;4438544;32;20390;-84
2022/01/20 12:42:42;;;;;;;;;;;;;;;7.56;59.60;99658.72;4438816;32;20012;-84
2022/01/20 12:47:51;;;;;;;;;;;;;;;7.63;59.61;99658.56;4452717;32;19986;-86
2022/01/20 12:50:17;;;;;;;;;;;;;;;7.58;59.60;99652.63;4452178;32;21608;-85
2022/01/20 12:52:48;;;;;;;;;;;;;;;7.61;59.61;99634.44;4438025;32;20800;-86
2022/01/20 12:55:14;;;;;;;;;;;;;;;7.78;59.62;99635.78;4425568;32;20406;-86
2022/01/20 12:57:39;;;;;;;;;;;;;;;7.47;59.60;99636.47;4438498;32;19979;-87
2022/01/20 13:00:04;;;;;;;;;;;;;;;7.41;59.59;99636.59;4425183;32;20042;-86
2022/01/20 13:02:33;;;;;;;;;;;;;;;7.25;59.59;99624.84;4425481;32;20004;-87
2022/01/20 13:04:59;;;;;;;;;;;;;;;7.18;59.58;99629.31;4452970;32;20397;-86
2022/01/20 13:07:25;;;;;;;;;;;;;;;7.04;59.58;99624.38;4438648;32;19988;-87
2022/01/20 13:10:00;;;;;;;;;;;;;;;7.04;59.58;99629.56;4452455;32;19989;-87
2022/01/20 13:12:32;;;;;;;;;;;;;;;7.06;59.57;99611.41;4441442;32;19992;-84
2022/01/20 13:14:57;;;;;;;;;;;;;;;6.99;59.57;99622.78;4440457;32;20040;-85
2022/01/20 13:17:26;;;;;;;;;;;;;;;7.17;59.58;99614.66;4454227;32;19984;-85
2022/01/20 13:19:54;;;;;;;;;;;;;;;7.20;59.58;99629.28;4440382;32;20283;-85
2022/01/20 13:22:25;;;;;;;;;;;;;;;7.19;59.58;99615.47;4427532;32;20270;-85
2022/01/20 13:24:50;;;;;;;;;;;;;;;7.08;59.57;99602.72;4454576;32;19991;-85
2022/01/20 13:27:15;;;;;;;;;;;;;;;7.18;59.58;99603.41;4454425;32;20021;-86
2022/01/20 13:29:44;;;;;;;;;;;;;;;7.16;59.57;99588.81;4427185;32;20364;-85
2022/01/20 13:32:10;;;;;;;;;;;;;;;7.25;59.59;99575.66;4440396;32;19998;-85
2022/01/20 13:34:35;;;;;;;;;;;;;;;7.44;59.60;99569.19;4440290;32;20090;-85
2022/01/20 13:37:00;;;;;;;;;;;;;;;7.50;59.60;99579.41;4440144;32;19996;-85
2022/01/20 13:39:28;;;;;;;;;;;;;;;7.46;59.59;99576.94;4440671;32;20043;-84
2022/01/20 13:42:04;;;;;;;;;;;;;;;7.61;59.61;99585.22;4454377;32;19997;-85
2022/01/20 13:47:13;;;;;;;;;;;;;;;7.76;59.61;99598.69;4454125;32;19992;-84
2022/01/20 13:49:51;;;;;;;;;;;;;;;7.62;59.61;99594.69;4454216;32;20282;-86
2022/01/20 13:52:19;;;;;;;;;;;;;;;7.78;59.62;99604.69;4440027;32;20001;-86
2022/01/20 13:54:45;;;;;;;;;;;;;;;7.61;59.61;99577.44;4440300;32;19987;-84